sensor_id;sensor_type;location;lat;lon;timestamp;P1;durP1;ratioP1;P2;durP2;ratioP2
44120;SDS011;29783;52.504;13.478;2023-06-22T00:35:01;11.18;;;8.70;;
44120;SDS011;29783;52.504;13.478;2023-06-22T00:37:31;9.23;;;8.13;;
44120;SDS011;29783;52.504;13.478;2023-06-22T00:39:57;12.70;;;9.68;;
44120;SDS011;29783;52.504;13.478;2023-06-22T00:42:24;13.18;;;9.45;;
44120;SDS011;29783;52.504;13.478;2023-06-22T00:44:50;12.40;;;8.93;;
44120;SDS011;29783;52.504;13.478;2023-06-22T01:06:34;15.73;;;9.40;;
44120;SDS011;29783;52.504;13.478;2023-06-22T01:09:06;16.75;;;10.30;;
44120;SDS011;29783;52.504;13.478;2023-06-22T01:11:39;11.70;;;10.30;;
44120;SDS011;29783;52.504;13.478;2023-06-22T01:14:23;11.63;;;10.30;;
44120;SDS011;29783;52.504;13.478;2023-06-22T01:16:49;13.15;;;9.48;;
44120;SDS011;29783;52.504;13.478;2023-06-22T01:22:02;14.77;;;10.25;;
44120;SDS011;29783;52.504;13.478;2023-06-22T01:27:28;12.65;;;10.77;;
44120;SDS011;29783;52.504;13.478;2023-06-22T01:29:58;13.18;;;11.07;;
44120;SDS011;29783;52.504;13.478;2023-06-22T01:32:33;12.07;;;10.23;;
44120;SDS011;29783;52.504;13.478;2023-06-22T01:35:02;13.30;;;10.88;;
44120;SDS011;29783;52.504;13.478;2023-06-22T01:37:30;12.55;;;10.10;;
44120;SDS011;29783;52.504;13.478;2023-06-22T01:39:58;17.08;;;11.50;;
44120;SDS011;29783;52.504;13.478;2023-06-22T01:42:24;12.05;;;10.48;;
44120;SDS011;29783;52.504;13.478;2023-06-22T01:44:52;16.40;;;11.85;;
44120;SDS011;29783;52.504;13.478;2023-06-22T01:55:20;17.33;;;12.30;;
44120;SDS011;29783;52.504;13.478;2023-06-22T01:57:46;13.40;;;11.52;;
44120;SDS011;29783;52.504;13.478;2023-06-22T02:00:14;14.50;;;13.02;;
44120;SDS011;29783;52.504;13.478;2023-06-22T02:02:59;15.55;;;11.93;;
44120;SDS011;29783;52.504;13.478;2023-06-22T02:05:28;18.52;;;13.18;;
44120;SDS011;29783;52.504;13.478;2023-06-22T02:08:02;19.25;;;13.80;;
44120;SDS011;29783;52.504;13.478;2023-06-22T02:10:31;19.77;;;13.57;;
44120;SDS011;29783;52.504;13.478;2023-06-22T02:12:58;16.80;;;13.23;;
44120;SDS011;29783;52.504;13.478;2023-06-22T02:15:24;15.75;;;13.35;;
44120;SDS011;29783;52.504;13.478;2023-06-22T02:17:51;17.25;;;12.93;;
44120;SDS011;29783;52.504;13.478;2023-06-22T02:20:17;18.15;;;12.68;;
44120;SDS011;29783;52.504;13.478;2023-06-22T02:22:43;16.48;;;13.52;;
44120;SDS011;29783;52.504;13.478;2023-06-22T02:25:09;15.93;;;12.48;;
44120;SDS011;29783;52.504;13.478;2023-06-22T02:27:35;20.70;;;13.18;;
44120;SDS011;29783;52.504;13.478;2023-06-22T02:30:05;17.70;;;14.48;;
44120;SDS011;29783;52.504;13.478;2023-06-22T02:32:31;19.30;;;13.55;;
44120;SDS011;29783;52.504;13.478;2023-06-22T02:34:59;16.23;;;14.20;;
44120;SDS011;29783;52.504;13.478;2023-06-22T02:37:25;15.75;;;14.18;;
44120;SDS011;29783;52.504;13.478;2023-06-22T02:39:54;22.58;;;15.32;;
44120;SDS011;29783;52.504;13.478;2023-06-22T02:42:20;19.10;;;14.40;;
44120;SDS011;29783;52.504;13.478;2023-06-22T02:44:46;16.10;;;14.20;;
44120;SDS011;29783;52.504;13.478;2023-06-22T02:47:13;16.02;;;13.60;;
44120;SDS011;29783;52.504;13.478;2023-06-22T02:49:39;18.25;;;13.80;;
44120;SDS011;29783;52.504;13.478;2023-06-22T02:52:05;18.77;;;14.18;;
44120;SDS011;29783;52.504;13.478;2023-06-22T02:54:31;15.45;;;13.63;;
44120;SDS011;29783;52.504;13.478;2023-06-22T02:56:58;14.65;;;13.15;;
44120;SDS011;29783;52.504;13.478;2023-06-22T02:59:27;15.45;;;13.15;;
44120;SDS011;29783;52.504;13.478;2023-06-22T03:01:53;15.13;;;12.77;;
44120;SDS011;29783;52.504;13.478;2023-06-22T03:04:20;19.08;;;13.85;;
44120;SDS011;29783;52.504;13.478;2023-06-22T03:06:46;14.73;;;12.85;;
44120;SDS011;29783;52.504;13.478;2023-06-22T03:09:16;17.63;;;13.43;;
44120;SDS011;29783;52.504;13.478;2023-06-22T03:11:42;13.18;;;11.77;;
44120;SDS011;29783;52.504;13.478;2023-06-22T03:14:08;17.92;;;12.52;;
44120;SDS011;29783;52.504;13.478;2023-06-22T03:16:34;21.20;;;13.05;;
44120;SDS011;29783;52.504;13.478;2023-06-22T03:19:01;15.65;;;12.18;;
44120;SDS011;29783;52.504;13.478;2023-06-22T03:21:28;17.45;;;13.45;;
44120;SDS011;29783;52.504;13.478;2023-06-22T03:23:54;13.73;;;12.15;;
44120;SDS011;29783;52.504;13.478;2023-06-22T03:26:20;18.42;;;12.32;;
44120;SDS011;29783;52.504;13.478;2023-06-22T03:28:46;15.95;;;11.85;;
44120;SDS011;29783;52.504;13.478;2023-06-22T03:31:12;19.77;;;12.73;;
44120;SDS011;29783;52.504;13.478;2023-06-22T03:33:38;16.30;;;10.98;;
44120;SDS011;29783;52.504;13.478;2023-06-22T03:36:04;17.58;;;10.13;;
44120;SDS011;29783;52.504;13.478;2023-06-22T03:38:30;29.73;;;7.80;;
44120;SDS011;29783;52.504;13.478;2023-06-22T03:40:56;11.30;;;7.45;;
44120;SDS011;29783;52.504;13.478;2023-06-22T03:43:23;14.98;;;7.35;;
44120;SDS011;29783;52.504;13.478;2023-06-22T03:45:49;9.60;;;7.18;;
44120;SDS011;29783;52.504;13.478;2023-06-22T03:48:15;14.63;;;7.85;;
44120;SDS011;29783;52.504;13.478;2023-06-22T03:50:41;9.50;;;6.47;;
44120;SDS011;29783;52.504;13.478;2023-06-22T03:53:08;11.20;;;7.15;;
44120;SDS011;29783;52.504;13.478;2023-06-22T03:55:35;10.80;;;7.45;;
44120;SDS011;29783;52.504;13.478;2023-06-22T03:58:01;12.02;;;7.00;;
44120;SDS011;29783;52.504;13.478;2023-06-22T04:00:30;14.63;;;6.68;;
44120;SDS011;29783;52.504;13.478;2023-06-22T04:02:56;10.43;;;6.22;;
44120;SDS011;29783;52.504;13.478;2023-06-22T04:05:22;12.50;;;6.50;;
44120;SDS011;29783;52.504;13.478;2023-06-22T04:07:49;9.52;;;5.90;;
44120;SDS011;29783;52.504;13.478;2023-06-22T04:10:15;10.90;;;5.90;;
44120;SDS011;29783;52.504;13.478;2023-06-22T04:12:41;10.82;;;6.38;;
44120;SDS011;29783;52.504;13.478;2023-06-22T04:15:07;9.77;;;6.28;;
44120;SDS011;29783;52.504;13.478;2023-06-22T04:17:33;8.00;;;6.03;;
44120;SDS011;29783;52.504;13.478;2023-06-22T04:20:00;10.70;;;6.50;;
44120;SDS011;29783;52.504;13.478;2023-06-22T04:22:26;11.07;;;6.53;;
44120;SDS011;29783;52.504;13.478;2023-06-22T04:24:52;8.85;;;6.30;;
44120;SDS011;29783;52.504;13.478;2023-06-22T04:27:18;8.80;;;5.97;;
44120;SDS011;29783;52.504;13.478;2023-06-22T04:29:44;16.17;;;6.28;;
44120;SDS011;29783;52.504;13.478;2023-06-22T04:32:14;9.93;;;6.07;;
44120;SDS011;29783;52.504;13.478;2023-06-22T04:34:40;9.15;;;6.15;;
44120;SDS011;29783;52.504;13.478;2023-06-22T04:37:06;9.10;;;5.90;;
44120;SDS011;29783;52.504;13.478;2023-06-22T04:39:32;13.25;;;6.07;;
44120;SDS011;29783;52.504;13.478;2023-06-22T04:41:58;7.60;;;5.40;;
44120;SDS011;29783;52.504;13.478;2023-06-22T04:44:25;8.57;;;6.05;;
44120;SDS011;29783;52.504;13.478;2023-06-22T04:46:58;12.80;;;6.18;;
44120;SDS011;29783;52.504;13.478;2023-06-22T04:49:25;8.27;;;5.90;;
44120;SDS011;29783;52.504;13.478;2023-06-22T04:51:57;10.23;;;5.28;;
44120;SDS011;29783;52.504;13.478;2023-06-22T04:54:23;10.77;;;5.25;;
44120;SDS011;29783;52.504;13.478;2023-06-22T04:56:49;9.93;;;4.78;;
44120;SDS011;29783;52.504;13.478;2023-06-22T04:59:21;14.80;;;5.70;;
44120;SDS011;29783;52.504;13.478;2023-06-22T05:01:47;7.60;;;5.60;;
44120;SDS011;29783;52.504;13.478;2023-06-22T05:04:13;9.23;;;6.07;;
44120;SDS011;29783;52.504;13.478;2023-06-22T05:06:39;10.02;;;6.10;;
44120;SDS011;29783;52.504;13.478;2023-06-22T05:09:05;7.47;;;5.18;;
44120;SDS011;29783;52.504;13.478;2023-06-22T05:11:32;10.63;;;5.55;;
44120;SDS011;29783;52.504;13.478;2023-06-22T05:13:57;9.85;;;5.72;;
44120;SDS011;29783;52.504;13.478;2023-06-22T05:16:24;7.32;;;5.25;;
44120;SDS011;29783;52.504;13.478;2023-06-22T05:18:50;9.93;;;5.70;;
44120;SDS011;29783;52.504;13.478;2023-06-22T05:21:17;8.20;;;5.57;;
44120;SDS011;29783;52.504;13.478;2023-06-22T05:23:44;11.00;;;5.82;;
44120;SDS011;29783;52.504;13.478;2023-06-22T05:26:10;7.22;;;5.50;;
44120;SDS011;29783;52.504;13.478;2023-06-22T05:28:36;19.70;;;5.20;;
44120;SDS011;29783;52.504;13.478;2023-06-22T05:31:02;8.27;;;5.20;;
44120;SDS011;29783;52.504;13.478;2023-06-22T05:33:32;12.68;;;5.30;;
44120;SDS011;29783;52.504;13.478;2023-06-22T05:35:58;11.38;;;5.07;;
44120;SDS011;29783;52.504;13.478;2023-06-22T05:38:24;9.75;;;5.00;;
44120;SDS011;29783;52.504;13.478;2023-06-22T05:40:50;5.72;;;4.75;;
44120;SDS011;29783;52.504;13.478;2023-06-22T05:43:16;8.27;;;4.72;;
44120;SDS011;29783;52.504;13.478;2023-06-22T05:45:42;8.25;;;4.40;;
44120;SDS011;29783;52.504;13.478;2023-06-22T05:48:08;10.18;;;4.70;;
44120;SDS011;29783;52.504;13.478;2023-06-22T05:50:34;16.60;;;4.68;;
44120;SDS011;29783;52.504;13.478;2023-06-22T05:53:00;6.70;;;4.20;;
44120;SDS011;29783;52.504;13.478;2023-06-22T05:55:26;7.97;;;4.53;;
44120;SDS011;29783;52.504;13.478;2023-06-22T05:57:52;7.20;;;4.18;;
44120;SDS011;29783;52.504;13.478;2023-06-22T06:00:18;7.50;;;4.18;;
44120;SDS011;29783;52.504;13.478;2023-06-22T06:02:44;8.43;;;4.32;;
44120;SDS011;29783;52.504;13.478;2023-06-22T06:05:11;7.72;;;3.95;;
44120;SDS011;29783;52.504;13.478;2023-06-22T06:07:40;9.63;;;4.47;;
44120;SDS011;29783;52.504;13.478;2023-06-22T06:10:07;9.23;;;3.83;;
44120;SDS011;29783;52.504;13.478;2023-06-22T06:12:33;5.90;;;4.10;;
44120;SDS011;29783;52.504;13.478;2023-06-22T06:14:59;10.85;;;3.85;;
44120;SDS011;29783;52.504;13.478;2023-06-22T06:17:25;8.88;;;3.78;;
44120;SDS011;29783;52.504;13.478;2023-06-22T06:19:51;5.93;;;3.60;;
44120;SDS011;29783;52.504;13.478;2023-06-22T06:22:17;7.45;;;3.60;;
44120;SDS011;29783;52.504;13.478;2023-06-22T06:24:45;8.73;;;3.97;;
44120;SDS011;29783;52.504;13.478;2023-06-22T06:27:12;6.95;;;3.88;;
44120;SDS011;29783;52.504;13.478;2023-06-22T06:29:38;7.57;;;3.72;;
44120;SDS011;29783;52.504;13.478;2023-06-22T06:32:04;12.00;;;3.53;;
44120;SDS011;29783;52.504;13.478;2023-06-22T06:34:30;5.57;;;3.75;;
44120;SDS011;29783;52.504;13.478;2023-06-22T06:36:56;9.70;;;4.10;;
44120;SDS011;29783;52.504;13.478;2023-06-22T06:39:22;6.82;;;4.25;;
44120;SDS011;29783;52.504;13.478;2023-06-22T06:41:49;13.75;;;3.83;;
44120;SDS011;29783;52.504;13.478;2023-06-22T06:44:15;4.43;;;2.85;;
44120;SDS011;29783;52.504;13.478;2023-06-22T06:46:41;9.15;;;3.17;;
44120;SDS011;29783;52.504;13.478;2023-06-22T06:49:07;6.53;;;3.17;;
44120;SDS011;29783;52.504;13.478;2023-06-22T06:51:33;9.07;;;3.65;;
44120;SDS011;29783;52.504;13.478;2023-06-22T06:53:59;4.45;;;2.90;;
44120;SDS011;29783;52.504;13.478;2023-06-22T06:56:25;7.40;;;3.00;;
44120;SDS011;29783;52.504;13.478;2023-06-22T06:58:51;9.35;;;2.63;;
44120;SDS011;29783;52.504;13.478;2023-06-22T07:01:17;5.95;;;2.42;;
44120;SDS011;29783;52.504;13.478;2023-06-22T07:03:44;4.18;;;2.70;;
44120;SDS011;29783;52.504;13.478;2023-06-22T07:06:12;13.20;;;2.53;;
44120;SDS011;29783;52.504;13.478;2023-06-22T07:08:39;4.60;;;2.65;;
44120;SDS011;29783;52.504;13.478;2023-06-22T07:11:05;5.57;;;2.53;;
44120;SDS011;29783;52.504;13.478;2023-06-22T07:13:31;9.57;;;2.70;;
44120;SDS011;29783;52.504;13.478;2023-06-22T07:15:58;12.82;;;3.70;;
44120;SDS011;29783;52.504;13.478;2023-06-22T07:18:24;9.02;;;3.00;;
44120;SDS011;29783;52.504;13.478;2023-06-22T07:20:51;7.65;;;2.78;;
44120;SDS011;29783;52.504;13.478;2023-06-22T07:23:17;4.53;;;2.20;;
44120;SDS011;29783;52.504;13.478;2023-06-22T07:25:43;5.85;;;2.67;;
44120;SDS011;29783;52.504;13.478;2023-06-22T07:28:09;4.03;;;2.28;;
44120;SDS011;29783;52.504;13.478;2023-06-22T07:30:36;5.38;;;2.38;;
44120;SDS011;29783;52.504;13.478;2023-06-22T07:33:02;6.40;;;2.08;;
44120;SDS011;29783;52.504;13.478;2023-06-22T07:35:32;4.65;;;1.95;;
44120;SDS011;29783;52.504;13.478;2023-06-22T07:37:58;6.43;;;2.15;;
44120;SDS011;29783;52.504;13.478;2023-06-22T07:40:24;2.47;;;1.88;;
44120;SDS011;29783;52.504;13.478;2023-06-22T07:42:50;3.40;;;2.13;;
44120;SDS011;29783;52.504;13.478;2023-06-22T07:45:19;3.38;;;2.03;;
44120;SDS011;29783;52.504;13.478;2023-06-22T07:47:45;6.72;;;2.22;;
44120;SDS011;29783;52.504;13.478;2023-06-22T07:50:12;3.28;;;1.83;;
44120;SDS011;29783;52.504;13.478;2023-06-22T07:52:38;4.85;;;2.00;;
44120;SDS011;29783;52.504;13.478;2023-06-22T07:55:04;5.63;;;2.47;;
44120;SDS011;29783;52.504;13.478;2023-06-22T07:57:30;3.20;;;1.90;;
44120;SDS011;29783;52.504;13.478;2023-06-22T07:59:59;4.63;;;2.30;;
44120;SDS011;29783;52.504;13.478;2023-06-22T08:02:26;7.07;;;1.90;;
44120;SDS011;29783;52.504;13.478;2023-06-22T08:04:52;3.40;;;1.90;;
44120;SDS011;29783;52.504;13.478;2023-06-22T08:07:18;3.33;;;1.80;;
44120;SDS011;29783;52.504;13.478;2023-06-22T08:09:48;8.50;;;2.03;;
44120;SDS011;29783;52.504;13.478;2023-06-22T08:12:15;3.33;;;1.92;;
44120;SDS011;29783;52.504;13.478;2023-06-22T08:14:41;4.38;;;2.00;;
44120;SDS011;29783;52.504;13.478;2023-06-22T08:17:11;6.60;;;1.90;;
44120;SDS011;29783;52.504;13.478;2023-06-22T08:19:37;4.47;;;1.90;;
44120;SDS011;29783;52.504;13.478;2023-06-22T08:22:03;9.07;;;2.30;;
44120;SDS011;29783;52.504;13.478;2023-06-22T08:24:29;6.10;;;1.73;;
44120;SDS011;29783;52.504;13.478;2023-06-22T08:26:55;12.10;;;2.03;;
44120;SDS011;29783;52.504;13.478;2023-06-22T08:29:21;8.52;;;2.25;;
44120;SDS011;29783;52.504;13.478;2023-06-22T08:31:48;6.20;;;2.75;;
44120;SDS011;29783;52.504;13.478;2023-06-22T08:34:14;3.45;;;2.60;;
44120;SDS011;29783;52.504;13.478;2023-06-22T08:36:40;7.25;;;2.53;;
44120;SDS011;29783;52.504;13.478;2023-06-22T08:39:08;2.45;;;2.13;;
44120;SDS011;29783;52.504;13.478;2023-06-22T08:41:34;3.13;;;2.00;;
44120;SDS011;29783;52.504;13.478;2023-06-22T08:44:00;2.75;;;2.17;;
44120;SDS011;29783;52.504;13.478;2023-06-22T08:46:26;5.25;;;2.40;;
44120;SDS011;29783;52.504;13.478;2023-06-22T08:48:56;6.53;;;2.20;;
44120;SDS011;29783;52.504;13.478;2023-06-22T08:51:22;6.95;;;2.13;;
44120;SDS011;29783;52.504;13.478;2023-06-22T08:53:49;3.53;;;2.30;;
44120;SDS011;29783;52.504;13.478;2023-06-22T08:56:15;9.85;;;2.47;;
44120;SDS011;29783;52.504;13.478;2023-06-22T08:58:41;6.72;;;2.40;;
44120;SDS011;29783;52.504;13.478;2023-06-22T09:01:08;12.73;;;2.60;;
44120;SDS011;29783;52.504;13.478;2023-06-22T09:03:34;5.20;;;2.40;;
44120;SDS011;29783;52.504;13.478;2023-06-22T09:06:02;2.53;;;1.92;;
44120;SDS011;29783;52.504;13.478;2023-06-22T09:08:28;4.70;;;2.00;;
44120;SDS011;29783;52.504;13.478;2023-06-22T09:10:54;3.05;;;1.75;;
44120;SDS011;29783;52.504;13.478;2023-06-22T09:13:20;7.13;;;2.22;;
44120;SDS011;29783;52.504;13.478;2023-06-22T09:15:47;7.72;;;2.20;;
44120;SDS011;29783;52.504;13.478;2023-06-22T09:18:13;5.70;;;2.00;;
44120;SDS011;29783;52.504;13.478;2023-06-22T09:20:39;4.63;;;2.13;;
44120;SDS011;29783;52.504;13.478;2023-06-22T09:23:06;6.85;;;2.15;;
44120;SDS011;29783;52.504;13.478;2023-06-22T09:25:32;3.47;;;1.95;;
44120;SDS011;29783;52.504;13.478;2023-06-22T09:27:58;7.40;;;2.03;;
44120;SDS011;29783;52.504;13.478;2023-06-22T09:30:24;4.10;;;2.05;;
44120;SDS011;29783;52.504;13.478;2023-06-22T09:32:50;3.30;;;1.95;;
44120;SDS011;29783;52.504;13.478;2023-06-22T09:35:16;7.18;;;1.95;;
44120;SDS011;29783;52.504;13.478;2023-06-22T09:37:42;4.63;;;2.13;;
44120;SDS011;29783;52.504;13.478;2023-06-22T09:40:08;5.13;;;2.00;;
44120;SDS011;29783;52.504;13.478;2023-06-22T09:42:36;6.07;;;2.47;;
44120;SDS011;29783;52.504;13.478;2023-06-22T09:45:02;9.40;;;2.05;;
44120;SDS011;29783;52.504;13.478;2023-06-22T09:47:28;9.45;;;2.40;;
44120;SDS011;29783;52.504;13.478;2023-06-22T09:49:55;4.65;;;2.22;;
44120;SDS011;29783;52.504;13.478;2023-06-22T09:52:21;5.40;;;2.00;;
44120;SDS011;29783;52.504;13.478;2023-06-22T09:54:47;4.43;;;2.10;;
44120;SDS011;29783;52.504;13.478;2023-06-22T09:57:13;9.38;;;2.25;;
44120;SDS011;29783;52.504;13.478;2023-06-22T09:59:39;8.73;;;2.58;;
44120;SDS011;29783;52.504;13.478;2023-06-22T10:02:05;4.10;;;2.28;;
44120;SDS011;29783;52.504;13.478;2023-06-22T10:04:32;5.60;;;2.08;;
44120;SDS011;29783;52.504;13.478;2023-06-22T10:06:58;3.90;;;2.38;;
44120;SDS011;29783;52.504;13.478;2023-06-22T10:09:24;4.00;;;2.20;;
44120;SDS011;29783;52.504;13.478;2023-06-22T10:11:50;5.55;;;2.10;;
44120;SDS011;29783;52.504;13.478;2023-06-22T10:14:16;5.85;;;2.08;;
44120;SDS011;29783;52.504;13.478;2023-06-22T10:16:42;4.70;;;2.10;;
44120;SDS011;29783;52.504;13.478;2023-06-22T10:19:08;3.33;;;2.30;;
44120;SDS011;29783;52.504;13.478;2023-06-22T10:21:34;7.20;;;3.30;;
44120;SDS011;29783;52.504;13.478;2023-06-22T10:24:00;2.90;;;2.40;;
44120;SDS011;29783;52.504;13.478;2023-06-22T10:26:31;5.45;;;2.40;;
44120;SDS011;29783;52.504;13.478;2023-06-22T10:28:57;3.22;;;1.83;;
44120;SDS011;29783;52.504;13.478;2023-06-22T10:31:23;4.72;;;2.30;;
44120;SDS011;29783;52.504;13.478;2023-06-22T10:33:49;5.80;;;2.20;;
44120;SDS011;29783;52.504;13.478;2023-06-22T10:36:15;3.88;;;2.40;;
44120;SDS011;29783;52.504;13.478;2023-06-22T10:38:41;4.05;;;2.20;;
44120;SDS011;29783;52.504;13.478;2023-06-22T10:41:07;4.95;;;2.05;;
44120;SDS011;29783;52.504;13.478;2023-06-22T10:43:33;4.85;;;2.00;;
44120;SDS011;29783;52.504;13.478;2023-06-22T10:45:59;3.45;;;2.00;;
44120;SDS011;29783;52.504;13.478;2023-06-22T10:48:25;5.60;;;2.10;;
44120;SDS011;29783;52.504;13.478;2023-06-22T10:50:51;4.47;;;1.85;;
44120;SDS011;29783;52.504;13.478;2023-06-22T10:53:18;4.82;;;2.35;;
44120;SDS011;29783;52.504;13.478;2023-06-22T10:55:44;3.03;;;1.90;;
44120;SDS011;29783;52.504;13.478;2023-06-22T10:58:10;4.15;;;2.08;;
44120;SDS011;29783;52.504;13.478;2023-06-22T11:00:36;2.60;;;1.88;;
44120;SDS011;29783;52.504;13.478;2023-06-22T11:03:02;3.60;;;2.00;;
44120;SDS011;29783;52.504;13.478;2023-06-22T11:05:28;2.92;;;1.92;;
44120;SDS011;29783;52.504;13.478;2023-06-22T11:07:54;4.47;;;2.22;;
44120;SDS011;29783;52.504;13.478;2023-06-22T11:10:20;3.92;;;2.08;;
44120;SDS011;29783;52.504;13.478;2023-06-22T11:12:46;3.25;;;2.10;;
44120;SDS011;29783;52.504;13.478;2023-06-22T11:15:12;6.50;;;2.40;;
44120;SDS011;29783;52.504;13.478;2023-06-22T11:17:38;2.90;;;2.20;;
44120;SDS011;29783;52.504;13.478;2023-06-22T11:20:04;4.68;;;3.22;;
44120;SDS011;29783;52.504;13.478;2023-06-22T11:22:36;6.45;;;2.70;;
44120;SDS011;29783;52.504;13.478;2023-06-22T11:25:02;5.05;;;2.13;;
44120;SDS011;29783;52.504;13.478;2023-06-22T11:27:29;4.50;;;1.95;;
44120;SDS011;29783;52.504;13.478;2023-06-22T11:29:55;3.85;;;1.98;;
44120;SDS011;29783;52.504;13.478;2023-06-22T11:32:21;3.45;;;1.85;;
44120;SDS011;29783;52.504;13.478;2023-06-22T11:34:47;5.68;;;2.33;;
44120;SDS011;29783;52.504;13.478;2023-06-22T11:37:13;5.55;;;1.98;;
44120;SDS011;29783;52.504;13.478;2023-06-22T11:39:40;4.63;;;2.28;;
44120;SDS011;29783;52.504;13.478;2023-06-22T11:42:06;3.13;;;2.00;;
44120;SDS011;29783;52.504;13.478;2023-06-22T11:44:32;2.85;;;2.03;;
44120;SDS011;29783;52.504;13.478;2023-06-22T11:46:58;5.47;;;2.03;;
44120;SDS011;29783;52.504;13.478;2023-06-22T11:49:26;5.88;;;2.15;;
44120;SDS011;29783;52.504;13.478;2023-06-22T11:51:52;2.78;;;2.28;;
44120;SDS011;29783;52.504;13.478;2023-06-22T11:54:18;4.20;;;2.20;;
44120;SDS011;29783;52.504;13.478;2023-06-22T11:56:44;3.65;;;2.33;;
44120;SDS011;29783;52.504;13.478;2023-06-22T11:59:10;3.78;;;2.15;;
44120;SDS011;29783;52.504;13.478;2023-06-22T12:01:36;2.50;;;2.30;;
44120;SDS011;29783;52.504;13.478;2023-06-22T12:04:02;2.58;;;2.25;;
44120;SDS011;29783;52.504;13.478;2023-06-22T12:06:31;3.65;;;2.08;;
44120;SDS011;29783;52.504;13.478;2023-06-22T12:08:57;2.60;;;1.85;;
44120;SDS011;29783;52.504;13.478;2023-06-22T12:11:23;5.95;;;2.20;;
44120;SDS011;29783;52.504;13.478;2023-06-22T12:13:49;5.82;;;2.05;;
44120;SDS011;29783;52.504;13.478;2023-06-22T12:16:15;5.82;;;2.00;;
44120;SDS011;29783;52.504;13.478;2023-06-22T12:18:41;4.15;;;2.08;;
44120;SDS011;29783;52.504;13.478;2023-06-22T12:21:07;7.47;;;2.17;;
44120;SDS011;29783;52.504;13.478;2023-06-22T12:23:33;2.33;;;1.85;;
44120;SDS011;29783;52.504;13.478;2023-06-22T12:25:59;6.18;;;2.10;;
44120;SDS011;29783;52.504;13.478;2023-06-22T12:28:26;9.45;;;2.58;;
44120;SDS011;29783;52.504;13.478;2023-06-22T12:30:52;6.70;;;1.95;;
44120;SDS011;29783;52.504;13.478;2023-06-22T12:33:18;5.20;;;1.92;;
44120;SDS011;29783;52.504;13.478;2023-06-22T12:35:45;3.78;;;2.00;;
44120;SDS011;29783;52.504;13.478;2023-06-22T12:38:13;5.43;;;2.30;;
44120;SDS011;29783;52.504;13.478;2023-06-22T12:40:39;6.90;;;2.28;;
44120;SDS011;29783;52.504;13.478;2023-06-22T12:43:05;2.60;;;2.00;;
44120;SDS011;29783;52.504;13.478;2023-06-22T12:45:32;9.15;;;2.45;;
44120;SDS011;29783;52.504;13.478;2023-06-22T12:47:59;5.50;;;2.55;;
44120;SDS011;29783;52.504;13.478;2023-06-22T12:50:26;3.60;;;2.45;;
44120;SDS011;29783;52.504;13.478;2023-06-22T12:52:52;5.85;;;2.70;;
44120;SDS011;29783;52.504;13.478;2023-06-22T12:55:18;2.97;;;2.35;;
44120;SDS011;29783;52.504;13.478;2023-06-22T12:57:44;3.33;;;2.40;;
44120;SDS011;29783;52.504;13.478;2023-06-22T13:00:10;6.72;;;2.40;;
44120;SDS011;29783;52.504;13.478;2023-06-22T13:02:36;6.78;;;2.30;;
44120;SDS011;29783;52.504;13.478;2023-06-22T13:05:02;2.72;;;2.30;;
44120;SDS011;29783;52.504;13.478;2023-06-22T13:07:30;7.18;;;2.25;;
44120;SDS011;29783;52.504;13.478;2023-06-22T13:09:56;5.90;;;2.78;;
44120;SDS011;29783;52.504;13.478;2023-06-22T13:12:22;3.80;;;2.22;;
44120;SDS011;29783;52.504;13.478;2023-06-22T13:14:48;4.97;;;2.13;;
44120;SDS011;29783;52.504;13.478;2023-06-22T13:17:14;4.18;;;2.28;;
44120;SDS011;29783;52.504;13.478;2023-06-22T13:19:41;4.60;;;2.17;;
44120;SDS011;29783;52.504;13.478;2023-06-22T13:22:40;5.53;;;2.70;;
44120;SDS011;29783;52.504;13.478;2023-06-22T13:25:06;11.70;;;2.42;;
44120;SDS011;29783;52.504;13.478;2023-06-22T13:27:32;7.22;;;2.70;;
44120;SDS011;29783;52.504;13.478;2023-06-22T13:29:58;4.00;;;3.60;;
44120;SDS011;29783;52.504;13.478;2023-06-22T13:32:24;8.48;;;2.40;;
44120;SDS011;29783;52.504;13.478;2023-06-22T13:34:52;5.55;;;2.40;;
44120;SDS011;29783;52.504;13.478;2023-06-22T13:37:18;5.82;;;2.47;;
44120;SDS011;29783;52.504;13.478;2023-06-22T13:39:44;5.13;;;2.47;;
44120;SDS011;29783;52.504;13.478;2023-06-22T13:42:10;2.45;;;2.10;;
44120;SDS011;29783;52.504;13.478;2023-06-22T13:44:36;7.22;;;2.20;;
44120;SDS011;29783;52.504;13.478;2023-06-22T14:01:28;11.35;;;2.30;;
44120;SDS011;29783;52.504;13.478;2023-06-22T14:03:55;2.80;;;2.10;;
44120;SDS011;29783;52.504;13.478;2023-06-22T14:06:21;3.92;;;2.10;;
44120;SDS011;29783;52.504;13.478;2023-06-22T14:08:47;3.40;;;2.05;;
44120;SDS011;29783;52.504;13.478;2023-06-22T14:11:14;3.45;;;1.98;;
44120;SDS011;29783;52.504;13.478;2023-06-22T14:13:40;3.90;;;2.05;;
44120;SDS011;29783;52.504;13.478;2023-06-22T14:16:08;6.45;;;2.28;;
44120;SDS011;29783;52.504;13.478;2023-06-22T14:18:34;2.97;;;2.00;;
44120;SDS011;29783;52.504;13.478;2023-06-22T14:21:00;2.40;;;2.05;;
44120;SDS011;29783;52.504;13.478;2023-06-22T14:23:26;12.57;;;2.40;;
44120;SDS011;29783;52.504;13.478;2023-06-22T14:25:52;7.78;;;2.38;;
44120;SDS011;29783;52.504;13.478;2023-06-22T14:28:18;7.15;;;2.30;;
44120;SDS011;29783;52.504;13.478;2023-06-22T14:30:44;2.53;;;1.95;;
44120;SDS011;29783;52.504;13.478;2023-06-22T14:33:11;4.07;;;2.00;;
44120;SDS011;29783;52.504;13.478;2023-06-22T14:35:37;5.57;;;2.20;;
44120;SDS011;29783;52.504;13.478;2023-06-22T14:38:03;5.20;;;2.25;;
44120;SDS011;29783;52.504;13.478;2023-06-22T14:40:30;5.70;;;2.22;;
44120;SDS011;29783;52.504;13.478;2023-06-22T14:42:56;2.90;;;2.00;;
44120;SDS011;29783;52.504;13.478;2023-06-22T14:45:22;2.47;;;2.00;;
44120;SDS011;29783;52.504;13.478;2023-06-22T14:47:48;6.50;;;2.30;;
44120;SDS011;29783;52.504;13.478;2023-06-22T14:50:14;6.97;;;2.40;;
44120;SDS011;29783;52.504;13.478;2023-06-22T14:52:40;9.05;;;2.38;;
44120;SDS011;29783;52.504;13.478;2023-06-22T14:55:08;4.53;;;2.25;;
44120;SDS011;29783;52.504;13.478;2023-06-22T14:57:34;9.45;;;2.00;;
44120;SDS011;29783;52.504;13.478;2023-06-22T15:00:00;3.10;;;2.28;;
44120;SDS011;29783;52.504;13.478;2023-06-22T15:02:27;3.47;;;2.25;;
44120;SDS011;29783;52.504;13.478;2023-06-22T15:04:53;12.85;;;2.25;;
44120;SDS011;29783;52.504;13.478;2023-06-22T15:07:19;3.30;;;2.20;;
44120;SDS011;29783;52.504;13.478;2023-06-22T15:09:45;5.32;;;2.50;;
44120;SDS011;29783;52.504;13.478;2023-06-22T15:12:11;2.72;;;2.00;;
44120;SDS011;29783;52.504;13.478;2023-06-22T15:14:38;5.88;;;2.13;;
44120;SDS011;29783;52.504;13.478;2023-06-22T15:17:05;2.35;;;1.90;;
44120;SDS011;29783;52.504;13.478;2023-06-22T15:19:31;4.63;;;2.22;;
44120;SDS011;29783;52.504;13.478;2023-06-22T15:21:57;3.65;;;2.13;;
44120;SDS011;29783;52.504;13.478;2023-06-22T15:24:23;8.23;;;2.17;;
44120;SDS011;29783;52.504;13.478;2023-06-22T15:26:49;3.28;;;2.10;;
44120;SDS011;29783;52.504;13.478;2023-06-22T15:29:15;5.10;;;2.03;;
44120;SDS011;29783;52.504;13.478;2023-06-22T15:31:41;7.60;;;2.03;;
44120;SDS011;29783;52.504;13.478;2023-06-22T15:34:07;3.33;;;2.00;;
44120;SDS011;29783;52.504;13.478;2023-06-22T15:36:34;2.50;;;2.17;;
44120;SDS011;29783;52.504;13.478;2023-06-22T15:39:00;3.38;;;2.25;;
44120;SDS011;29783;52.504;13.478;2023-06-22T15:41:25;4.82;;;2.13;;
44120;SDS011;29783;52.504;13.478;2023-06-22T15:43:53;5.88;;;2.00;;
44120;SDS011;29783;52.504;13.478;2023-06-22T15:46:18;4.88;;;2.88;;